sensor_id;sensor_type;location;lat;lon;timestamp;P1;durP1;ratioP1;P2;durP2;ratioP2
75139;SDS011;63714;55.812;37.658;2024-01-15T00:01:09;4.45;;;2.75;;
75139;SDS011;63714;55.812;37.658;2024-01-15T00:03:34;10.15;;;4.15;;
75139;SDS011;63714;55.812;37.658;2024-01-15T00:06:00;6.18;;;2.13;;
75139;SDS011;63714;55.812;37.658;2024-01-15T00:08:25;4.70;;;2.85;;
75139;SDS011;63714;55.812;37.658;2024-01-15T00:13:35;10.45;;;3.47;;
75139;SDS011;63714;55.812;37.658;2024-01-15T00:16:00;7.85;;;3.38;;
75139;SDS011;63714;55.812;37.658;2024-01-15T00:18:26;8.65;;;4.18;;
75139;SDS011;63714;55.812;37.658;2024-01-15T00:20:52;9.23;;;5.13;;
75139;SDS011;63714;55.812;37.658;2024-01-15T00:23:17;7.38;;;3.35;;
75139;SDS011;63714;55.812;37.658;2024-01-15T00:28:27;10.90;;;3.72;;
75139;SDS011;63714;55.812;37.658;2024-01-15T00:31:11;8.40;;;4.00;;
75139;SDS011;63714;55.812;37.658;2024-01-15T00:33:36;12.32;;;4.25;;
75139;SDS011;63714;55.812;37.658;2024-01-15T00:36:02;9.23;;;4.63;;
75139;SDS011;63714;55.812;37.658;2024-01-15T00:38:28;8.95;;;4.03;;
75139;SDS011;63714;55.812;37.658;2024-01-15T00:40:54;6.30;;;2.85;;
75139;SDS011;63714;55.812;37.658;2024-01-15T00:43:22;7.97;;;3.55;;
75139;SDS011;63714;55.812;37.658;2024-01-15T00:45:47;9.43;;;4.00;;
75139;SDS011;63714;55.812;37.658;2024-01-15T00:48:13;8.18;;;2.95;;
75139;SDS011;63714;55.812;37.658;2024-01-15T00:50:39;9.30;;;3.90;;
75139;SDS011;63714;55.812;37.658;2024-01-15T00:53:07;11.40;;;4.55;;
75139;SDS011;63714;55.812;37.658;2024-01-15T00:55:32;7.22;;;3.63;;
75139;SDS011;63714;55.812;37.658;2024-01-15T00:57:58;9.90;;;4.35;;
75139;SDS011;63714;55.812;37.658;2024-01-15T01:00:42;7.95;;;3.97;;
75139;SDS011;63714;55.812;37.658;2024-01-15T01:03:08;3.83;;;2.15;;
75139;SDS011;63714;55.812;37.658;2024-01-15T01:05:34;5.78;;;3.05;;
75139;SDS011;63714;55.812;37.658;2024-01-15T01:08:00;6.13;;;3.13;;
75139;SDS011;63714;55.812;37.658;2024-01-15T01:10:26;8.23;;;4.13;;
75139;SDS011;63714;55.812;37.658;2024-01-15T01:12:51;8.15;;;3.83;;
75139;SDS011;63714;55.812;37.658;2024-01-15T01:15:17;11.85;;;4.55;;
75139;SDS011;63714;55.812;37.658;2024-01-15T01:17:42;6.90;;;3.25;;
75139;SDS011;63714;55.812;37.658;2024-01-15T01:20:08;6.22;;;3.50;;
75139;SDS011;63714;55.812;37.658;2024-01-15T01:22:52;9.00;;;4.45;;
75139;SDS011;63714;55.812;37.658;2024-01-15T01:25:18;8.75;;;4.25;;
75139;SDS011;63714;55.812;37.658;2024-01-15T01:27:44;8.13;;;4.18;;
75139;SDS011;63714;55.812;37.658;2024-01-15T01:30:12;9.52;;;4.22;;
75139;SDS011;63714;55.812;37.658;2024-01-15T01:32:38;5.65;;;2.80;;
75139;SDS011;63714;55.812;37.658;2024-01-15T01:35:06;10.02;;;4.20;;
75139;SDS011;63714;55.812;37.658;2024-01-15T01:37:32;8.15;;;3.65;;
75139;SDS011;63714;55.812;37.658;2024-01-15T01:39:59;10.38;;;4.95;;
75139;SDS011;63714;55.812;37.658;2024-01-15T01:42:28;11.25;;;4.72;;
75139;SDS011;63714;55.812;37.658;2024-01-15T01:44:53;9.43;;;4.30;;
75139;SDS011;63714;55.812;37.658;2024-01-15T01:47:22;12.40;;;5.03;;
75139;SDS011;63714;55.812;37.658;2024-01-15T01:49:51;6.05;;;3.20;;
75139;SDS011;63714;55.812;37.658;2024-01-15T01:52:18;12.23;;;4.40;;
75139;SDS011;63714;55.812;37.658;2024-01-15T01:54:47;12.02;;;4.68;;
75139;SDS011;63714;55.812;37.658;2024-01-15T01:57:12;10.32;;;4.53;;
75139;SDS011;63714;55.812;37.658;2024-01-15T01:59:40;11.05;;;4.38;;
75139;SDS011;63714;55.812;37.658;2024-01-15T02:02:06;7.45;;;4.13;;
75139;SDS011;63714;55.812;37.658;2024-01-15T02:04:31;5.35;;;3.58;;
75139;SDS011;63714;55.812;37.658;2024-01-15T02:07:01;9.55;;;3.35;;
75139;SDS011;63714;55.812;37.658;2024-01-15T02:12:31;10.02;;;4.35;;
75139;SDS011;63714;55.812;37.658;2024-01-15T02:18:00;12.80;;;4.47;;
75139;SDS011;63714;55.812;37.658;2024-01-15T02:20:29;10.20;;;5.55;;
75139;SDS011;63714;55.812;37.658;2024-01-15T02:23:10;17.17;;;5.85;;
75139;SDS011;63714;55.812;37.658;2024-01-15T02:25:38;11.25;;;5.32;;
75139;SDS011;63714;55.812;37.658;2024-01-15T02:28:05;8.50;;;3.05;;
75139;SDS011;63714;55.812;37.658;2024-01-15T02:30:31;12.40;;;5.82;;
75139;SDS011;63714;55.812;37.658;2024-01-15T02:32:58;4.25;;;2.55;;
75139;SDS011;63714;55.812;37.658;2024-01-15T02:35:42;11.38;;;4.60;;
75139;SDS011;63714;55.812;37.658;2024-01-15T02:38:08;9.07;;;4.10;;
75139;SDS011;63714;55.812;37.658;2024-01-15T02:43:40;14.18;;;4.57;;
75139;SDS011;63714;55.812;37.658;2024-01-15T02:46:06;11.90;;;4.97;;
75139;SDS011;63714;55.812;37.658;2024-01-15T02:48:32;11.23;;;5.00;;
75139;SDS011;63714;55.812;37.658;2024-01-15T02:51:00;10.98;;;5.07;;
75139;SDS011;63714;55.812;37.658;2024-01-15T02:53:44;12.73;;;5.22;;
75139;SDS011;63714;55.812;37.658;2024-01-15T02:56:10;9.23;;;4.65;;
75139;SDS011;63714;55.812;37.658;2024-01-15T02:58:35;14.02;;;5.55;;
75139;SDS011;63714;55.812;37.658;2024-01-15T03:01:03;8.30;;;4.70;;
75139;SDS011;63714;55.812;37.658;2024-01-15T03:03:29;12.57;;;4.93;;
75139;SDS011;63714;55.812;37.658;2024-01-15T03:05:55;12.07;;;5.90;;
75139;SDS011;63714;55.812;37.658;2024-01-15T03:08:20;8.18;;;4.22;;
75139;SDS011;63714;55.812;37.658;2024-01-15T03:11:04;8.88;;;3.60;;
75139;SDS011;63714;55.812;37.658;2024-01-15T03:13:30;5.13;;;2.88;;
75139;SDS011;63714;55.812;37.658;2024-01-15T03:15:55;8.02;;;3.13;;
75139;SDS011;63714;55.812;37.658;2024-01-15T03:18:21;7.20;;;3.67;;
75139;SDS011;63714;55.812;37.658;2024-01-15T03:20:46;9.80;;;4.05;;
75139;SDS011;63714;55.812;37.658;2024-01-15T03:23:12;9.02;;;4.45;;
75139;SDS011;63714;55.812;37.658;2024-01-15T03:25:56;12.43;;;5.63;;
75139;SDS011;63714;55.812;37.658;2024-01-15T03:28:22;7.93;;;4.30;;
75139;SDS011;63714;55.812;37.658;2024-01-15T03:31:06;9.43;;;4.97;;
75139;SDS011;63714;55.812;37.658;2024-01-15T03:33:33;17.52;;;5.47;;
75139;SDS011;63714;55.812;37.658;2024-01-15T03:35:58;7.95;;;3.70;;
75139;SDS011;63714;55.812;37.658;2024-01-15T03:38:24;8.82;;;4.22;;
75139;SDS011;63714;55.812;37.658;2024-01-15T03:41:08;9.40;;;4.57;;
75139;SDS011;63714;55.812;37.658;2024-01-15T03:43:34;9.85;;;5.18;;
75139;SDS011;63714;55.812;37.658;2024-01-15T03:46:00;12.63;;;5.47;;
75139;SDS011;63714;55.812;37.658;2024-01-15T03:48:25;12.27;;;5.35;;
75139;SDS011;63714;55.812;37.658;2024-01-15T03:50:51;14.60;;;5.70;;
75139;SDS011;63714;55.812;37.658;2024-01-15T03:53:16;10.63;;;4.30;;
75139;SDS011;63714;55.812;37.658;2024-01-15T03:56:00;11.35;;;5.32;;
75139;SDS011;63714;55.812;37.658;2024-01-15T03:58:25;12.40;;;5.57;;
75139;SDS011;63714;55.812;37.658;2024-01-15T04:00:51;8.27;;;4.43;;
75139;SDS011;63714;55.812;37.658;2024-01-15T04:03:16;10.55;;;4.80;;
75139;SDS011;63714;55.812;37.658;2024-01-15T04:05:42;11.88;;;6.05;;
75139;SDS011;63714;55.812;37.658;2024-01-15T04:08:08;10.73;;;5.80;;
75139;SDS011;63714;55.812;37.658;2024-01-15T04:10:33;12.75;;;5.03;;
75139;SDS011;63714;55.812;37.658;2024-01-15T04:12:59;15.30;;;5.80;;
75139;SDS011;63714;55.812;37.658;2024-01-15T04:18:09;13.57;;;5.45;;
75139;SDS011;63714;55.812;37.658;2024-01-15T04:20:34;9.68;;;5.00;;
75139;SDS011;63714;55.812;37.658;2024-01-15T04:23:00;13.45;;;5.40;;
75139;SDS011;63714;55.812;37.658;2024-01-15T04:25:25;13.80;;;5.82;;
75139;SDS011;63714;55.812;37.658;2024-01-15T04:27:51;12.43;;;5.47;;
75139;SDS011;63714;55.812;37.658;2024-01-15T04:30:16;11.38;;;5.70;;
75139;SDS011;63714;55.812;37.658;2024-01-15T04:32:42;10.20;;;5.43;;
75139;SDS011;63714;55.812;37.658;2024-01-15T04:35:07;15.38;;;6.60;;
75139;SDS011;63714;55.812;37.658;2024-01-15T04:37:33;13.25;;;6.30;;
75139;SDS011;63714;55.812;37.658;2024-01-15T04:42:43;14.48;;;5.80;;
75139;SDS011;63714;55.812;37.658;2024-01-15T04:47:55;11.95;;;4.68;;
75139;SDS011;63714;55.812;37.658;2024-01-15T04:50:23;10.15;;;5.25;;
75139;SDS011;63714;55.812;37.658;2024-01-15T04:52:49;11.73;;;5.38;;
75139;SDS011;63714;55.812;37.658;2024-01-15T04:55:15;9.95;;;4.68;;
75139;SDS011;63714;55.812;37.658;2024-01-15T04:57:41;10.20;;;4.22;;
75139;SDS011;63714;55.812;37.658;2024-01-15T05:00:06;9.73;;;4.20;;
75139;SDS011;63714;55.812;37.658;2024-01-15T05:02:32;11.32;;;4.88;;
75139;SDS011;63714;55.812;37.658;2024-01-15T05:07:42;14.63;;;6.68;;
75139;SDS011;63714;55.812;37.658;2024-01-15T05:10:07;11.57;;;5.55;;
75139;SDS011;63714;55.812;37.658;2024-01-15T05:12:33;7.97;;;3.65;;
75139;SDS011;63714;55.812;37.658;2024-01-15T05:14:59;7.32;;;3.97;;
75139;SDS011;63714;55.812;37.658;2024-01-15T05:17:25;8.02;;;3.80;;
75139;SDS011;63714;55.812;37.658;2024-01-15T05:20:09;12.43;;;6.20;;
75139;SDS011;63714;55.812;37.658;2024-01-15T05:22:35;11.38;;;5.55;;
75139;SDS011;63714;55.812;37.658;2024-01-15T05:25:01;15.35;;;6.10;;
75139;SDS011;63714;55.812;37.658;2024-01-15T05:27:28;16.17;;;5.60;;
75139;SDS011;63714;55.812;37.658;2024-01-15T05:29:53;8.80;;;3.78;;
75139;SDS011;63714;55.812;37.658;2024-01-15T05:32:37;11.10;;;4.35;;
75139;SDS011;63714;55.812;37.658;2024-01-15T05:35:03;13.02;;;5.82;;
75139;SDS011;63714;55.812;37.658;2024-01-15T05:37:47;13.07;;;5.78;;
75139;SDS011;63714;55.812;37.658;2024-01-15T05:40:13;11.02;;;5.80;;
75139;SDS011;63714;55.812;37.658;2024-01-15T05:42:39;13.48;;;6.18;;
75139;SDS011;63714;55.812;37.658;2024-01-15T05:45:05;13.43;;;6.35;;
75139;SDS011;63714;55.812;37.658;2024-01-15T05:50:34;18.20;;;7.03;;
75139;SDS011;63714;55.812;37.658;2024-01-15T05:53:02;13.00;;;6.32;;
75139;SDS011;63714;55.812;37.658;2024-01-15T05:55:28;11.32;;;4.95;;
75139;SDS011;63714;55.812;37.658;2024-01-15T05:58:11;15.65;;;6.97;;
75139;SDS011;63714;55.812;37.658;2024-01-15T06:00:37;16.45;;;6.47;;
75139;SDS011;63714;55.812;37.658;2024-01-15T06:03:03;11.70;;;5.00;;
75139;SDS011;63714;55.812;37.658;2024-01-15T06:05:29;17.90;;;7.03;;
75139;SDS011;63714;55.812;37.658;2024-01-15T06:07:54;13.35;;;6.38;;
75139;SDS011;63714;55.812;37.658;2024-01-15T06:10:19;9.10;;;4.28;;
75139;SDS011;63714;55.812;37.658;2024-01-15T06:12:45;15.57;;;5.80;;
75139;SDS011;63714;55.812;37.658;2024-01-15T06:15:10;15.25;;;6.43;;
75139;SDS011;63714;55.812;37.658;2024-01-15T06:17:37;13.90;;;7.05;;
75139;SDS011;63714;55.812;37.658;2024-01-15T06:20:02;14.63;;;6.75;;
75139;SDS011;63714;55.812;37.658;2024-01-15T06:22:28;13.88;;;6.60;;
75139;SDS011;63714;55.812;37.658;2024-01-15T06:25:13;10.82;;;5.00;;
75139;SDS011;63714;55.812;37.658;2024-01-15T06:27:38;16.75;;;6.85;;
75139;SDS011;63714;55.812;37.658;2024-01-15T06:30:04;15.32;;;7.32;;
75139;SDS011;63714;55.812;37.658;2024-01-15T06:32:30;15.07;;;5.82;;
75139;SDS011;63714;55.812;37.658;2024-01-15T06:34:55;12.65;;;6.47;;
75139;SDS011;63714;55.812;37.658;2024-01-15T06:37:21;9.63;;;4.95;;
75139;SDS011;63714;55.812;37.658;2024-01-15T06:39:47;16.00;;;7.50;;
75139;SDS011;63714;55.812;37.658;2024-01-15T06:42:12;15.60;;;6.90;;
75139;SDS011;63714;55.812;37.658;2024-01-15T06:44:38;8.65;;;4.25;;
75139;SDS011;63714;55.812;37.658;2024-01-15T06:49:48;7.55;;;4.10;;
75139;SDS011;63714;55.812;37.658;2024-01-15T06:52:15;14.52;;;6.22;;
75139;SDS011;63714;55.812;37.658;2024-01-15T06:54:59;7.97;;;4.90;;
75139;SDS011;63714;55.812;37.658;2024-01-15T06:57:24;12.82;;;5.90;;
75139;SDS011;63714;55.812;37.658;2024-01-15T07:02:35;12.05;;;5.18;;
75139;SDS011;63714;55.812;37.658;2024-01-15T07:05:01;12.82;;;5.70;;
75139;SDS011;63714;55.812;37.658;2024-01-15T07:07:26;13.27;;;6.28;;
75139;SDS011;63714;55.812;37.658;2024-01-15T07:09:54;12.90;;;5.22;;
75139;SDS011;63714;55.812;37.658;2024-01-15T07:12:38;15.27;;;7.05;;
75139;SDS011;63714;55.812;37.658;2024-01-15T07:15:04;16.92;;;6.20;;
75139;SDS011;63714;55.812;37.658;2024-01-15T07:20:16;13.35;;;7.30;;
75139;SDS011;63714;55.812;37.658;2024-01-15T07:22:44;12.82;;;6.65;;
75139;SDS011;63714;55.812;37.658;2024-01-15T07:25:10;19.27;;;7.22;;
75139;SDS011;63714;55.812;37.658;2024-01-15T07:27:54;12.90;;;6.45;;
75139;SDS011;63714;55.812;37.658;2024-01-15T07:33:04;9.48;;;4.20;;
75139;SDS011;63714;55.812;37.658;2024-01-15T07:35:30;15.40;;;6.47;;
75139;SDS011;63714;55.812;37.658;2024-01-15T07:37:56;14.52;;;6.55;;
75139;SDS011;63714;55.812;37.658;2024-01-15T07:40:21;16.70;;;7.50;;
75139;SDS011;63714;55.812;37.658;2024-01-15T07:43:05;14.20;;;6.40;;
75139;SDS011;63714;55.812;37.658;2024-01-15T07:45:49;10.40;;;4.75;;
75139;SDS011;63714;55.812;37.658;2024-01-15T07:48:15;8.82;;;3.90;;
75139;SDS011;63714;55.812;37.658;2024-01-15T07:50:40;9.50;;;4.55;;
75139;SDS011;63714;55.812;37.658;2024-01-15T07:55:50;11.82;;;6.10;;
75139;SDS011;63714;55.812;37.658;2024-01-15T07:58:37;13.30;;;6.35;;
75139;SDS011;63714;55.812;37.658;2024-01-15T08:01:02;14.20;;;6.63;;
75139;SDS011;63714;55.812;37.658;2024-01-15T08:03:28;13.88;;;5.82;;
75139;SDS011;63714;55.812;37.658;2024-01-15T08:05:57;12.20;;;6.35;;
75139;SDS011;63714;55.812;37.658;2024-01-15T08:08:42;11.25;;;4.35;;
75139;SDS011;63714;55.812;37.658;2024-01-15T08:11:07;13.95;;;6.68;;
75139;SDS011;63714;55.812;37.658;2024-01-15T08:13:35;13.68;;;6.68;;
75139;SDS011;63714;55.812;37.658;2024-01-15T08:16:00;12.15;;;5.88;;
75139;SDS011;63714;55.812;37.658;2024-01-15T08:18:27;15.88;;;7.55;;
75139;SDS011;63714;55.812;37.658;2024-01-15T08:23:36;13.10;;;5.85;;
75139;SDS011;63714;55.812;37.658;2024-01-15T08:26:02;15.57;;;7.72;;
75139;SDS011;63714;55.812;37.658;2024-01-15T08:29:05;14.25;;;5.82;;
75139;SDS011;63714;55.812;37.658;2024-01-15T08:31:36;9.80;;;5.03;;
75139;SDS011;63714;55.812;37.658;2024-01-15T08:34:02;15.57;;;6.28;;
75139;SDS011;63714;55.812;37.658;2024-01-15T08:36:27;15.77;;;6.82;;
75139;SDS011;63714;55.812;37.658;2024-01-15T08:38:56;15.88;;;7.05;;
75139;SDS011;63714;55.812;37.658;2024-01-15T08:44:06;11.93;;;6.68;;
75139;SDS011;63714;55.812;37.658;2024-01-15T08:46:31;18.38;;;5.97;;
75139;SDS011;63714;55.812;37.658;2024-01-15T08:48:57;14.98;;;6.95;;
75139;SDS011;63714;55.812;37.658;2024-01-15T08:51:22;16.30;;;7.22;;
75139;SDS011;63714;55.812;37.658;2024-01-15T08:53:48;18.48;;;7.50;;
75139;SDS011;63714;55.812;37.658;2024-01-15T08:56:13;12.23;;;6.00;;
75139;SDS011;63714;55.812;37.658;2024-01-15T08:58:39;13.85;;;6.38;;
75139;SDS011;63714;55.812;37.658;2024-01-15T09:01:04;16.02;;;6.32;;
75139;SDS011;63714;55.812;37.658;2024-01-15T09:03:30;16.70;;;8.15;;
75139;SDS011;63714;55.812;37.658;2024-01-15T09:05:56;17.13;;;7.35;;
75139;SDS011;63714;55.812;37.658;2024-01-15T09:08:21;15.35;;;7.20;;
75139;SDS011;63714;55.812;37.658;2024-01-15T09:10:47;17.70;;;7.90;;
75139;SDS011;63714;55.812;37.658;2024-01-15T09:13:12;16.35;;;7.53;;
75139;SDS011;63714;55.812;37.658;2024-01-15T09:15:41;15.52;;;7.20;;
75139;SDS011;63714;55.812;37.658;2024-01-15T09:18:07;15.38;;;7.15;;
75139;SDS011;63714;55.812;37.658;2024-01-15T09:20:33;11.40;;;5.88;;
75139;SDS011;63714;55.812;37.658;2024-01-15T09:22:59;14.43;;;7.70;;
75139;SDS011;63714;55.812;37.658;2024-01-15T09:25:24;13.05;;;6.32;;
75139;SDS011;63714;55.812;37.658;2024-01-15T09:27:50;16.30;;;8.15;;
75139;SDS011;63714;55.812;37.658;2024-01-15T09:30:15;15.73;;;7.90;;
75139;SDS011;63714;55.812;37.658;2024-01-15T09:32:41;13.52;;;5.88;;
75139;SDS011;63714;55.812;37.658;2024-01-15T09:35:06;14.80;;;7.55;;
75139;SDS011;63714;55.812;37.658;2024-01-15T09:37:32;14.13;;;6.95;;
75139;SDS011;63714;55.812;37.658;2024-01-15T09:40:16;14.48;;;6.80;;
75139;SDS011;63714;55.812;37.658;2024-01-15T09:42:45;12.73;;;6.47;;
75139;SDS011;63714;55.812;37.658;2024-01-15T09:45:11;11.70;;;4.82;;
75139;SDS011;63714;55.812;37.658;2024-01-15T09:50:21;15.80;;;7.50;;
75139;SDS011;63714;55.812;37.658;2024-01-15T09:52:47;16.13;;;7.63;;
75139;SDS011;63714;55.812;37.658;2024-01-15T09:55:13;16.70;;;7.65;;
75139;SDS011;63714;55.812;37.658;2024-01-15T09:57:57;14.55;;;7.03;;
75139;SDS011;63714;55.812;37.658;2024-01-15T10:00:26;10.35;;;5.88;;
75139;SDS011;63714;55.812;37.658;2024-01-15T10:02:52;13.32;;;5.40;;
75139;SDS011;63714;55.812;37.658;2024-01-15T10:05:18;15.77;;;7.05;;
75139;SDS011;63714;55.812;37.658;2024-01-15T10:07:44;15.48;;;7.45;;
75139;SDS011;63714;55.812;37.658;2024-01-15T10:10:11;14.40;;;6.47;;
75139;SDS011;63714;55.812;37.658;2024-01-15T10:12:37;17.83;;;6.57;;
75139;SDS011;63714;55.812;37.658;2024-01-15T10:15:04;17.35;;;7.65;;
75139;SDS011;63714;55.812;37.658;2024-01-15T10:17:48;13.02;;;7.22;;
75139;SDS011;63714;55.812;37.658;2024-01-15T10:20:14;15.00;;;6.40;;
75139;SDS011;63714;55.812;37.658;2024-01-15T10:22:43;16.40;;;7.20;;
75139;SDS011;63714;55.812;37.658;2024-01-15T10:25:12;18.02;;;7.68;;
75139;SDS011;63714;55.812;37.658;2024-01-15T10:27:38;18.00;;;7.85;;
75139;SDS011;63714;55.812;37.658;2024-01-15T10:30:05;21.70;;;7.88;;
75139;SDS011;63714;55.812;37.658;2024-01-15T10:32:31;15.35;;;7.65;;
75139;SDS011;63714;55.812;37.658;2024-01-15T10:35:15;17.17;;;7.20;;
75139;SDS011;63714;55.812;37.658;2024-01-15T10:37:41;18.35;;;8.10;;
75139;SDS011;63714;55.812;37.658;2024-01-15T10:40:07;15.73;;;7.60;;
75139;SDS011;63714;55.812;37.658;2024-01-15T10:42:33;12.48;;;5.97;;
75139;SDS011;63714;55.812;37.658;2024-01-15T10:44:58;15.25;;;6.90;;
75139;SDS011;63714;55.812;37.658;2024-01-15T10:47:24;12.48;;;6.80;;
75139;SDS011;63714;55.812;37.658;2024-01-15T10:49:49;12.50;;;5.03;;
75139;SDS011;63714;55.812;37.658;2024-01-15T10:52:15;17.40;;;6.80;;
75139;SDS011;63714;55.812;37.658;2024-01-15T10:54:42;14.43;;;6.60;;
75139;SDS011;63714;55.812;37.658;2024-01-15T10:57:26;14.07;;;6.10;;
75139;SDS011;63714;55.812;37.658;2024-01-15T11:02:56;11.02;;;5.38;;
75139;SDS011;63714;55.812;37.658;2024-01-15T11:05:22;15.90;;;7.57;;
75139;SDS011;63714;55.812;37.658;2024-01-15T11:07:48;11.65;;;6.07;;
75139;SDS011;63714;55.812;37.658;2024-01-15T11:19:01;16.55;;;7.07;;
75139;SDS011;63714;55.812;37.658;2024-01-15T11:21:28;15.65;;;6.93;;
75139;SDS011;63714;55.812;37.658;2024-01-15T11:23:55;13.57;;;5.95;;
75139;SDS011;63714;55.812;37.658;2024-01-15T11:26:35;15.10;;;7.22;;
75139;SDS011;63714;55.812;37.658;2024-01-15T11:34:20;15.77;;;7.18;;
75139;SDS011;63714;55.812;37.658;2024-01-15T11:41:56;7.85;;;4.72;;
75139;SDS011;63714;55.812;37.658;2024-01-15T11:44:22;16.83;;;7.80;;
75139;SDS011;63714;55.812;37.658;2024-01-15T11:47:10;16.33;;;7.53;;
75139;SDS011;63714;55.812;37.658;2024-01-15T11:57:40;15.65;;;7.15;;
75139;SDS011;63714;55.812;37.658;2024-01-15T12:02:54;16.98;;;7.07;;
75139;SDS011;63714;55.812;37.658;2024-01-15T12:08:06;14.38;;;7.43;;
75139;SDS011;63714;55.812;37.658;2024-01-15T12:10:36;10.77;;;5.70;;
75139;SDS011;63714;55.812;37.658;2024-01-15T12:13:09;11.32;;;6.43;;
75139;SDS011;63714;55.812;37.658;2024-01-15T12:15:35;17.98;;;7.63;;
75139;SDS011;63714;55.812;37.658;2024-01-15T12:20:45;13.18;;;6.05;;
75139;SDS011;63714;55.812;37.658;2024-01-15T12:28:27;15.10;;;7.00;;
75139;SDS011;63714;55.812;37.658;2024-01-15T12:33:36;13.32;;;5.90;;
75139;SDS011;63714;55.812;37.658;2024-01-15T12:36:02;14.43;;;6.45;;
75139;SDS011;63714;55.812;37.658;2024-01-15T12:38:29;16.42;;;7.57;;
75139;SDS011;63714;55.812;37.658;2024-01-15T12:40:54;16.48;;;6.40;;
75139;SDS011;63714;55.812;37.658;2024-01-15T12:43:20;13.75;;;6.57;;
75139;SDS011;63714;55.812;37.658;2024-01-15T12:45:45;19.58;;;7.45;;
75139;SDS011;63714;55.812;37.658;2024-01-15T12:48:11;16.67;;;6.65;;
75139;SDS011;63714;55.812;37.658;2024-01-15T12:50:38;10.75;;;5.45;;
75139;SDS011;63714;55.812;37.658;2024-01-15T12:53:22;17.25;;;8.68;;
75139;SDS011;63714;55.812;37.658;2024-01-15T12:55:47;16.15;;;6.97;;
75139;SDS011;63714;55.812;37.658;2024-01-15T12:58:13;14.98;;;8.07;;
75139;SDS011;63714;55.812;37.658;2024-01-15T13:00:39;16.42;;;7.38;;
75139;SDS011;63714;55.812;37.658;2024-01-15T13:03:05;17.35;;;7.63;;
75139;SDS011;63714;55.812;37.658;2024-01-15T13:07:59;15.05;;;6.82;;
75139;SDS011;63714;55.812;37.658;2024-01-15T13:10:24;16.48;;;7.70;;
75139;SDS011;63714;55.812;37.658;2024-01-15T13:12:50;16.63;;;7.07;;
75139;SDS011;63714;55.812;37.658;2024-01-15T13:15:16;21.10;;;7.18;;
75139;SDS011;63714;55.812;37.658;2024-01-15T13:17:42;14.25;;;6.68;;
75139;SDS011;63714;55.812;37.658;2024-01-15T13:20:08;15.48;;;6.65;;
75139;SDS011;63714;55.812;37.658;2024-01-15T13:22:52;14.88;;;7.38;;
75139;SDS011;63714;55.812;37.658;2024-01-15T13:25:18;17.80;;;8.60;;
75139;SDS011;63714;55.812;37.658;2024-01-15T13:27:44;16.23;;;7.53;;
75139;SDS011;63714;55.812;37.658;2024-01-15T13:30:10;19.88;;;8.25;;
75139;SDS011;63714;55.812;37.658;2024-01-15T13:32:36;16.25;;;7.60;;
75139;SDS011;63714;55.812;37.658;2024-01-15T13:35:01;13.98;;;6.10;;
75139;SDS011;63714;55.812;37.658;2024-01-15T13:40:14;14.43;;;6.85;;
75139;SDS011;63714;55.812;37.658;2024-01-15T13:42:45;18.73;;;8.38;;
75139;SDS011;63714;55.812;37.658;2024-01-15T13:45:12;14.38;;;6.78;;
75139;SDS011;63714;55.812;37.658;2024-01-15T13:47:39;12.93;;;5.95;;
75139;SDS011;63714;55.812;37.658;2024-01-15T13:50:07;19.80;;;7.63;;
75139;SDS011;63714;55.812;37.658;2024-01-15T13:52:33;15.55;;;7.85;;
75139;SDS011;63714;55.812;37.658;2024-01-15T13:54:58;15.98;;;7.05;;
75139;SDS011;63714;55.812;37.658;2024-01-15T13:57:24;17.23;;;7.78;;
75139;SDS011;63714;55.812;37.658;2024-01-15T13:59:49;14.35;;;7.05;;
75139;SDS011;63714;55.812;37.658;2024-01-15T14:02:36;16.63;;;8.00;;
75139;SDS011;63714;55.812;37.658;2024-01-15T14:05:02;12.35;;;5.40;;
75139;SDS011;63714;55.812;37.658;2024-01-15T14:10:12;12.55;;;4.88;;
75139;SDS011;63714;55.812;37.658;2024-01-15T14:12:38;13.73;;;6.63;;
75139;SDS011;63714;55.812;37.658;2024-01-15T14:15:04;16.50;;;7.25;;
75139;SDS011;63714;55.812;37.658;2024-01-15T14:17:31;9.10;;;4.57;;
75139;SDS011;63714;55.812;37.658;2024-01-15T14:19:56;15.20;;;6.47;;
75139;SDS011;63714;55.812;37.658;2024-01-15T14:22:42;17.98;;;6.55;;
75139;SDS011;63714;55.812;37.658;2024-01-15T14:25:09;15.65;;;7.00;;
75139;SDS011;63714;55.812;37.658;2024-01-15T14:27:34;15.93;;;6.93;;
75139;SDS011;63714;55.812;37.658;2024-01-15T14:30:01;12.45;;;6.25;;
75139;SDS011;63714;55.812;37.658;2024-01-15T14:32:46;12.27;;;6.38;;
75139;SDS011;63714;55.812;37.658;2024-01-15T14:35:11;14.63;;;7.25;;
75139;SDS011;63714;55.812;37.658;2024-01-15T14:37:40;8.65;;;4.55;;
75139;SDS011;63714;55.812;37.658;2024-01-15T14:40:06;15.60;;;7.28;;
75139;SDS011;63714;55.812;37.658;2024-01-15T14:42:35;15.38;;;7.15;;
75139;SDS011;63714;55.812;37.658;2024-01-15T14:45:02;17.17;;;7.10;;
75139;SDS011;63714;55.812;37.658;2024-01-15T14:50:13;14.82;;;7.38;;
75139;SDS011;63714;55.812;37.658;2024-01-15T14:52:39;17.05;;;7.90;;
75139;SDS011;63714;55.812;37.658;2024-01-15T14:55:07;16.25;;;6.43;;
75139;SDS011;63714;55.812;37.658;2024-01-15T14:57:34;14.30;;;7.05;;
75139;SDS011;63714;55.812;37.658;2024-01-15T15:00:18;18.40;;;6.93;;
75139;SDS011;63714;55.812;37.658;2024-01-15T15:02:44;14.85;;;8.05;;
75139;SDS011;63714;55.812;37.658;2024-01-15T15:05:09;15.95;;;7.60;;
75139;SDS011;63714;55.812;37.658;2024-01-15T15:07:36;13.73;;;6.65;;
75139;SDS011;63714;55.812;37.658;2024-01-15T15:12:53;15.48;;;7.47;;
75139;SDS011;63714;55.812;37.658;2024-01-15T15:15:19;17.98;;;7.60;;
75139;SDS011;63714;55.812;37.658;2024-01-15T15:17:45;13.10;;;7.05;;
75139;SDS011;63714;55.812;37.658;2024-01-15T15:20:11;12.50;;;5.95;;
75139;SDS011;63714;55.812;37.658;2024-01-15T15:22:36;14.40;;;7.20;;
75139;SDS011;63714;55.812;37.658;2024-01-15T15:25:22;16.75;;;7.07;;
75139;SDS011;63714;55.812;37.658;2024-01-15T15:27:48;12.10;;;5.85;;
75139;SDS011;63714;55.812;37.658;2024-01-15T15:30:13;14.52;;;7.30;;
75139;SDS011;63714;55.812;37.658;2024-01-15T15:32:39;16.30;;;6.45;;
75139;SDS011;63714;55.812;37.658;2024-01-15T15:35:04;16.23;;;7.40;;
75139;SDS011;63714;55.812;37.658;2024-01-15T15:37:31;11.90;;;6.70;;
75139;SDS011;63714;55.812;37.658;2024-01-15T15:39:57;12.75;;;6.25;;
75139;SDS011;63714;55.812;37.658;2024-01-15T15:42:24;13.00;;;5.82;;
75139;SDS011;63714;55.812;37.658;2024-01-15T15:45:27;13.88;;;6.32;;
75139;SDS011;63714;55.812;37.658;2024-01-15T15:47:52;12.95;;;6.32;;
75139;SDS011;63714;55.812;37.658;2024-01-15T15:50:18;14.23;;;6.85;;
75139;SDS011;63714;55.812;37.658;2024-01-15T15:52:43;15.90;;;7.72;;
75139;SDS011;63714;55.812;37.658;2024-01-15T15:55:10;15.15;;;7.53;;
75139;SDS011;63714;55.812;37.658;2024-01-15T16:00:20;12.05;;;6.13;;
75139;SDS011;63714;55.812;37.658;2024-01-15T16:02:45;14.77;;;6.30;;
75139;SDS011;63714;55.812;37.658;2024-01-15T16:05:11;16.67;;;7.40;;
75139;SDS011;63714;55.812;37.658;2024-01-15T16:07:37;15.73;;;7.00;;
75139;SDS011;63714;55.812;37.658;2024-01-15T16:10:02;13.30;;;5.95;;
75139;SDS011;63714;55.812;37.658;2024-01-15T16:12:28;16.95;;;7.18;;
75139;SDS011;63714;55.812;37.658;2024-01-15T16:15:22;14.93;;;6.10;;
75139;SDS011;63714;55.812;37.658;2024-01-15T16:18:06;15.43;;;6.40;;
75139;SDS011;63714;55.812;37.658;2024-01-15T16:20:32;11.88;;;6.25;;
75139;SDS011;63714;55.812;37.658;2024-01-15T16:22:58;14.65;;;7.82;;